createdAt,value
2022-12-29T00:00:21.655Z,99833.81
2022-12-29T00:01:08.689Z,99832.69
2022-12-29T00:01:55.543Z,99841.03
2022-12-29T00:02:29.676Z,99822.66
2022-12-29T00:03:16.593Z,99843.81
2022-12-29T00:03:53.857Z,99836.34
2022-12-29T00:04:40.548Z,99823.44
2022-12-29T00:05:17.618Z,99828.06
2022-12-29T00:06:04.552Z,99829.00
2022-12-29T00:06:44.658Z,99825.72
2022-12-29T00:07:25.565Z,99829.53
2022-12-29T00:08:05.666Z,99820.25
2022-12-29T00:08:48.566Z,99835.66
2022-12-29T00:09:30.658Z,99832.97
2022-12-29T00:10:11.612Z,99830.50
2022-12-29T00:10:51.676Z,99815.59
2022-12-29T00:11:35.622Z,99823.66
2022-12-29T00:12:16.584Z,99807.94
2022-12-29T00:13:15.595Z,99827.59
2022-12-29T00:14:15.106Z,99821.75
2022-12-29T00:15:14.569Z,99818.31
2022-12-29T00:15:54.662Z,99815.16
2022-12-29T00:16:35.664Z,99821.06
2022-12-29T00:17:16.582Z,99810.63
2022-12-29T00:17:58.559Z,99790.75
2022-12-29T00:18:40.164Z,99806.16
2022-12-29T00:19:39.557Z,99791.53
2022-12-29T00:20:38.389Z,99800.59
2022-12-29T00:21:41.653Z,99786.16
2022-12-29T00:22:42.509Z,99783.75
2022-12-29T00:23:41.578Z,99765.75
2022-12-29T00:24:27.680Z,99766.41
2022-12-29T00:25:27.530Z,99768.88
2022-12-29T00:26:30.363Z,99772.50
2022-12-29T00:27:29.622Z,99762.84
2022-12-29T00:28:36.456Z,99758.97
2022-12-29T00:29:37.632Z,99767.16
2022-12-29T00:30:47.974Z,99775.66
2022-12-29T00:31:46.636Z,99799.31
2022-12-29T00:32:52.558Z,99796.38
2022-12-29T00:34:06.520Z,99792.22
2022-12-29T00:35:16.509Z,99789.41
2022-12-29T00:36:26.491Z,99785.53
2022-12-29T00:37:20.504Z,99770.38
2022-12-29T00:38:31.585Z,99777.34
2022-12-29T00:39:28.092Z,99775.78
2022-12-29T00:40:37.550Z,99777.03
2022-12-29T00:41:30.308Z,99765.75
2022-12-29T00:42:36.585Z,99760.97
2022-12-29T00:43:31.763Z,99769.53
2022-12-29T00:44:12.571Z,99769.78
2022-12-29T00:44:52.580Z,99777.81
2022-12-29T00:45:35.598Z,99776.63
2022-12-29T00:46:20.219Z,99759.38
2022-12-29T00:47:01.576Z,99770.38
2022-12-29T00:47:46.004Z,99768.00
2022-12-29T00:49:05.539Z,99767.88
2022-12-29T00:49:45.522Z,99768.78
2022-12-29T00:50:19.574Z,99774.53
2022-12-29T00:51:06.479Z,99769.81
2022-12-29T00:51:42.963Z,99784.22
2022-12-29T00:52:29.511Z,99762.44
2022-12-29T00:53:03.561Z,99786.09
2022-12-29T00:53:50.502Z,99775.88
2022-12-29T00:54:24.612Z,99785.88
2022-12-29T00:55:04.491Z,99769.75
2022-12-29T00:55:45.594Z,99758.63
2022-12-29T00:56:25.510Z,99778.31
2022-12-29T00:57:07.583Z,99781.50
2022-12-29T00:57:48.532Z,99766.72
2022-12-29T00:58:28.631Z,99774.13
2022-12-29T00:59:17.228Z,99776.47
2022-12-29T00:59:58.689Z,99755.44
2022-12-29T01:00:39.635Z,99773.66
2022-12-29T01:01:20.642Z,99767.31
2022-12-29T01:02:02.608Z,99767.31
2022-12-29T01:02:42.771Z,99779.03
2022-12-29T01:03:23.523Z,99764.38
2022-12-29T01:04:04.543Z,99746.44
2022-12-29T01:04:45.509Z,99766.34
2022-12-29T01:05:25.579Z,99776.81
2022-12-29T01:06:09.525Z,99758.25
2022-12-29T01:06:50.569Z,99771.31
2022-12-29T01:07:30.480Z,99769.75
2022-12-29T01:08:11.702Z,99768.03
2022-12-29T01:08:51.453Z,99756.78
2022-12-29T01:09:50.092Z,99765.59
2022-12-29T01:10:30.451Z,99754.34
2022-12-29T01:12:32.577Z,99760.47
2022-12-29T01:13:51.492Z,99755.59
2022-12-29T01:14:45.525Z,99747.06
2022-12-29T01:15:39.650Z,99743.13
2022-12-29T01:16:33.553Z,99760.72
2022-12-29T01:17:27.456Z,99756.53
2022-12-29T01:18:07.551Z,99753.63
2022-12-29T01:18:47.748Z,99756.94
2022-12-29T01:19:28.462Z,99756.78
2022-12-29T01:20:11.169Z,99752.13
2022-12-29T01:20:52.439Z,99760.44
2022-12-29T01:21:33.549Z,99759.72
2022-12-29T01:22:13.453Z,99758.25
2022-12-29T01:22:54.553Z,99758.47
2022-12-29T01:23:35.489Z,99749.72
2022-12-29T01:24:15.624Z,99757.78
2022-12-29T01:24:57.607Z,99764.59
2022-12-29T01:25:38.598Z,99769.13
2022-12-29T01:26:21.486Z,99766.56
2022-12-29T01:27:01.587Z,99763.84
2022-12-29T01:27:42.445Z,99754.31
2022-12-29T01:28:26.173Z,99738.19
2022-12-29T01:29:07.460Z,99752.88
2022-12-29T01:29:47.566Z,99748.53
2022-12-29T01:30:28.465Z,99759.44
2022-12-29T01:31:09.681Z,99750.25
2022-12-29T01:31:50.677Z,99743.56
2022-12-29T01:32:31.531Z,99753.59
2022-12-29T01:33:12.466Z,99764.56
2022-12-29T01:33:52.533Z,99763.16
2022-12-29T01:34:33.496Z,99740.31
2022-12-29T01:35:14.564Z,99757.50
2022-12-29T01:35:55.469Z,99759.97
2022-12-29T01:36:35.554Z,99753.13
2022-12-29T01:37:16.459Z,99753.63
2022-12-29T01:37:58.647Z,99766.31
2022-12-29T01:38:39.453Z,99753.13
2022-12-29T01:39:19.521Z,99761.53
2022-12-29T01:40:00.456Z,99738.59
2022-12-29T01:40:40.686Z,99753.25
2022-12-29T01:41:26.450Z,99736.88
2022-12-29T01:42:06.608Z,99744.84
2022-12-29T01:42:48.444Z,99737.03
2022-12-29T01:44:01.409Z,99753.50
2022-12-29T01:45:12.535Z,99747.53
2022-12-29T01:46:07.486Z,99738.72
2022-12-29T01:47:03.440Z,99742.06
2022-12-29T01:48:16.431Z,99719.59
2022-12-29T01:49:36.436Z,99728.50
2022-12-29T01:50:56.487Z,99736.31
2022-12-29T01:52:07.510Z,99731.69
2022-12-29T01:53:16.450Z,99731.19
2022-12-29T01:54:15.457Z,99727.78
2022-12-29T01:55:10.438Z,99724.31
2022-12-29T01:56:07.443Z,99708.47
2022-12-29T01:57:02.402Z,99723.13
2022-12-29T01:58:00.448Z,99717.78
2022-12-29T01:58:57.443Z,99708.00
2022-12-29T01:59:57.423Z,99701.63
2022-12-29T02:00:52.565Z,99711.53
2022-12-29T02:01:32.534Z,99707.00
2022-12-29T02:02:13.561Z,99695.78
2022-12-29T02:03:01.556Z,99691.16
2022-12-29T02:03:42.626Z,99714.84
2022-12-29T02:04:23.429Z,99698.72
2022-12-29T02:05:06.557Z,99686.72
2022-12-29T02:06:12.455Z,99700.41
2022-12-29T02:07:05.490Z,99702.59
2022-12-29T02:07:39.532Z,99707.25
2022-12-29T02:08:29.454Z,99690.75
2022-12-29T02:09:04.587Z,99692.00
2022-12-29T02:09:55.409Z,99706.91
2022-12-29T02:10:31.546Z,99701.63
2022-12-29T02:11:19.459Z,99711.66
2022-12-29T02:11:53.516Z,99689.91
2022-12-29T02:12:34.470Z,99688.06
2022-12-29T02:13:14.491Z,99705.31
2022-12-29T02:13:55.404Z,99690.31
2022-12-29T02:14:37.553Z,99690.38
2022-12-29T02:15:18.431Z,99680.50
2022-12-29T02:17:03.928Z,99697.97
2022-12-29T02:18:07.432Z,99690.06
2022-12-29T02:19:24.537Z,99685.78
2022-12-29T02:20:39.387Z,99697.97
2022-12-29T02:22:19.401Z,99696.53
2022-12-29T02:23:55.427Z,99690.69
2022-12-29T02:25:07.479Z,99697.00
2022-12-29T02:26:32.419Z,99692.59
2022-12-29T02:28:15.410Z,99687.97
2022-12-29T02:29:42.422Z,99689.44
2022-12-29T02:31:20.433Z,99674.69
2022-12-29T02:33:03.415Z,99659.56
2022-12-29T02:34:30.399Z,99638.22
2022-12-29T02:35:38.406Z,99663.34
2022-12-29T02:36:59.523Z,99676.78
2022-12-29T02:38:20.402Z,99664.69
2022-12-29T02:39:44.477Z,99668.38
2022-12-29T02:40:54.399Z,99646.97
2022-12-29T02:41:48.474Z,99652.97
2022-12-29T02:42:34.380Z,99665.28
2022-12-29T02:44:01.873Z,99675.53
2022-12-29T02:45:12.388Z,99666.41
2022-12-29T02:46:09.456Z,99666.53
2022-12-29T02:47:54.368Z,99678.50
2022-12-29T02:49:09.367Z,99677.38
2022-12-29T02:50:31.372Z,99670.66
2022-12-29T02:51:38.447Z,99650.41
2022-12-29T02:52:42.376Z,99680.19
2022-12-29T02:53:55.402Z,99678.22
2022-12-29T02:54:50.374Z,99648.47
2022-12-29T02:55:44.404Z,99664.94
2022-12-29T02:56:39.373Z,99655.03
2022-12-29T02:57:36.376Z,99675.53
2022-12-29T02:58:36.410Z,99672.13
2022-12-29T02:59:31.374Z,99659.06
2022-12-29T03:00:29.350Z,99663.09
2022-12-29T03:03:31.456Z,99634.56
2022-12-29T03:04:27.693Z,99661.41
2022-12-29T03:05:22.367Z,99661.28
2022-12-29T03:06:40.488Z,99652.38
2022-12-29T03:07:42.348Z,99652.38
2022-12-29T03:09:18.859Z,99656.03
2022-12-29T03:10:45.363Z,99652.38
2022-12-29T03:12:06.390Z,99646.16
2022-12-29T03:13:41.341Z,99639.22
2022-12-29T03:14:58.420Z,99635.06
2022-12-29T03:16:05.946Z,99649.22
2022-12-29T03:17:01.424Z,99627.88
2022-12-29T03:17:59.502Z,99636.28
2022-12-29T03:19:27.354Z,99634.81
2022-12-29T03:20:19.357Z,99614.31
2022-12-29T03:21:25.303Z,99627.38
2022-12-29T03:22:35.345Z,99613.97
2022-12-29T03:23:30.360Z,99645.31
2022-12-29T03:24:25.353Z,99650.94
2022-12-29T03:25:43.363Z,99643.84
2022-12-29T03:26:37.322Z,99647.50
2022-12-29T03:27:39.327Z,99636.06
2022-12-29T03:28:43.386Z,99652.66
2022-12-29T03:29:37.346Z,99643.25
2022-12-29T03:30:32.402Z,99650.06
2022-12-29T03:31:15.397Z,99639.59
2022-12-29T03:31:57.557Z,99623.97
2022-12-29T03:33:02.326Z,99629.94
2022-12-29T03:33:46.434Z,99625.53
2022-12-29T03:34:28.304Z,99632.75
2022-12-29T03:35:10.513Z,99638.25
2022-12-29T03:35:52.325Z,99631.91
2022-12-29T03:36:40.361Z,99612.38
2022-12-29T03:37:22.448Z,99614.59
2022-12-29T03:38:15.319Z,99625.06
2022-12-29T03:39:00.559Z,99635.56
2022-12-29T03:39:47.317Z,99645.94
2022-12-29T03:40:21.441Z,99645.56
2022-12-29T03:41:15.343Z,99639.81
2022-12-29T03:41:58.379Z,99635.19
2022-12-29T03:42:53.325Z,99619.94
2022-12-29T03:43:48.324Z,99610.28
2022-12-29T03:44:53.326Z,99646.53
2022-12-29T03:45:47.358Z,99637.03
2022-12-29T03:46:41.335Z,99636.28
2022-12-29T03:47:22.363Z,99633.84
2022-12-29T03:48:03.393Z,99639.22
2022-12-29T03:48:43.370Z,99646.66
2022-12-29T03:49:23.371Z,99643.63
2022-12-29T03:50:03.289Z,99643.13
2022-12-29T03:50:43.410Z,99633.38
2022-12-29T03:51:23.475Z,99644.47
2022-12-29T03:52:03.407Z,99638.47
2022-12-29T03:52:44.346Z,99638.25
2022-12-29T03:53:24.354Z,99629.22
2022-12-29T03:54:04.264Z,99621.88
2022-12-29T03:54:44.397Z,99634.94
2022-12-29T03:55:24.355Z,99630.19
2022-12-29T03:56:04.648Z,99637.41
2022-12-29T03:56:44.320Z,99638.97
2022-12-29T03:57:25.364Z,99629.44
2022-12-29T03:58:05.318Z,99631.66
2022-12-29T03:58:59.286Z,99639.44
2022-12-29T03:59:53.311Z,99641.19
2022-12-29T04:00:47.359Z,99637.97
2022-12-29T04:01:41.536Z,99640.66
2022-12-29T04:02:35.448Z,99626.88
2022-12-29T04:03:22.339Z,99647.50
2022-12-29T04:03:56.381Z,99637.25
2022-12-29T04:04:43.313Z,99646.28
2022-12-29T04:05:17.343Z,99638.97
2022-12-29T04:06:04.289Z,99647.00
2022-12-29T04:06:38.369Z,99628.72
2022-12-29T04:07:25.283Z,99635.28
2022-12-29T04:07:59.430Z,99641.66
2022-12-29T04:08:46.302Z,99635.78
2022-12-29T04:09:20.374Z,99630.69
2022-12-29T04:10:07.322Z,99638.59
2022-12-29T04:10:41.356Z,99641.66
2022-12-29T04:11:33.065Z,99645.44
2022-12-29T04:12:07.391Z,99632.38
2022-12-29T04:12:54.313Z,99641.41
2022-12-29T04:13:28.519Z,99635.06
2022-12-29T04:14:09.560Z,99632.50
2022-12-29T04:14:49.414Z,99618.97
2022-12-29T04:15:31.356Z,99639.09
2022-12-29T04:16:12.444Z,99638.47
2022-12-29T04:16:53.287Z,99640.66
2022-12-29T04:17:33.356Z,99630.69
2022-12-29T04:18:14.302Z,99639.44
2022-12-29T04:18:54.370Z,99628.72
2022-12-29T04:19:34.337Z,99633.84
2022-12-29T04:20:34.167Z,99628.22
2022-12-29T04:21:14.286Z,99631.91
2022-12-29T04:21:54.347Z,99613.25
2022-12-29T04:22:34.297Z,99625.91
2022-12-29T04:23:15.322Z,99625.06
2022-12-29T04:23:55.302Z,99615.78
2022-12-29T04:24:42.307Z,99620.94
2022-12-29T04:25:36.294Z,99620.81
2022-12-29T04:26:30.274Z,99622.84
2022-12-29T04:27:24.269Z,99626.03
2022-12-29T04:28:18.282Z,99620.44
2022-12-29T04:29:13.272Z,99617.97
2022-12-29T04:30:01.312Z,99619.69
2022-12-29T04:30:35.363Z,99613.09
2022-12-29T04:31:22.350Z,99618.25
2022-12-29T04:31:56.380Z,99617.78
2022-12-29T04:32:44.256Z,99616.63
2022-12-29T04:33:18.750Z,99618.47
2022-12-29T04:34:07.294Z,99605.53
2022-12-29T04:34:41.360Z,99598.72
2022-12-29T04:35:21.292Z,99608.22
2022-12-29T04:36:02.310Z,99606.88
2022-12-29T04:36:42.239Z,99608.59
2022-12-29T04:37:22.325Z,99614.31
2022-12-29T04:38:02.242Z,99606.16
2022-12-29T04:38:42.324Z,99613.81
2022-12-29T04:39:23.237Z,99608.47
2022-12-29T04:40:03.397Z,99609.94
2022-12-29T04:40:47.311Z,99613.09
2022-12-29T04:41:27.534Z,99607.50
2022-12-29T04:42:07.237Z,99604.34
2022-12-29T04:42:47.355Z,99611.41
2022-12-29T04:43:29.348Z,99611.63
2022-12-29T04:44:09.382Z,99604.34
2022-12-29T04:44:49.250Z,99604.56
2022-12-29T04:45:29.342Z,99608.72
2022-12-29T04:46:09.280Z,99606.28
2022-12-29T04:46:49.389Z,99586.50
2022-12-29T04:47:29.273Z,99604.69
2022-12-29T04:48:09.310Z,99600.41
2022-12-29T04:48:50.250Z,99591.84
2022-12-29T04:49:30.442Z,99587.97
2022-12-29T04:50:12.243Z,99603.09
2022-12-29T04:50:55.296Z,99587.97
2022-12-29T04:51:35.257Z,99592.84
2022-12-29T04:52:15.336Z,99602.50
2022-12-29T04:52:55.294Z,99579.69
2022-12-29T04:53:35.335Z,99588.72
2022-12-29T04:54:16.321Z,99605.78
2022-12-29T04:54:57.372Z,99607.03
2022-12-29T04:55:37.230Z,99583.44
2022-12-29T04:56:17.330Z,99609.19
2022-12-29T04:56:58.250Z,99607.50
2022-12-29T04:57:38.290Z,99611.88
2022-12-29T04:58:22.532Z,99623.16
2022-12-29T04:59:17.242Z,99595.28
2022-12-29T05:00:11.244Z,99599.81
2022-12-29T05:01:06.250Z,99616.16
2022-12-29T05:02:00.418Z,99615.81
2022-12-29T05:02:55.450Z,99615.28
2022-12-29T05:03:49.311Z,99598.69
2022-12-29T05:04:43.203Z,99605.78
2022-12-29T05:05:37.216Z,99616.50
2022-12-29T05:06:31.214Z,99614.09
2022-12-29T05:07:18.274Z,99610.41
2022-12-29T05:07:55.381Z,99609.94
2022-12-29T05:08:42.235Z,99613.81
2022-12-29T05:09:16.281Z,99601.16
2022-12-29T05:10:05.242Z,99604.06
2022-12-29T05:10:39.298Z,99612.88
2022-12-29T05:11:26.203Z,99605.78
2022-12-29T05:12:00.272Z,99612.88
2022-12-29T05:12:42.238Z,99611.41
2022-12-29T05:13:22.288Z,99591.28
2022-12-29T05:14:02.250Z,99605.03
2022-12-29T05:14:42.289Z,99601.50
2022-12-29T05:15:22.230Z,99606.88
2022-12-29T05:16:02.341Z,99589.09
2022-12-29T05:16:42.236Z,99606.25
2022-12-29T05:18:44.225Z,99622.38
2022-12-29T05:19:38.223Z,99624.06
2022-12-29T05:20:33.221Z,99598.00
2022-12-29T05:21:27.225Z,99596.03
2022-12-29T05:22:22.200Z,99619.69
2022-12-29T05:23:16.217Z,99625.84
2022-12-29T05:24:03.297Z,99615.06
2022-12-29T05:24:37.330Z,99617.97
2022-12-29T05:25:24.219Z,99620.66
2022-12-29T05:25:58.304Z,99615.06
2022-12-29T05:26:45.233Z,99603.72
2022-12-29T05:27:19.320Z,99595.03
2022-12-29T05:27:59.460Z,99589.44
2022-12-29T05:28:39.209Z,99599.31
2022-12-29T05:29:26.214Z,99605.41
2022-12-29T05:30:00.052Z,99600.28
2022-12-29T05:30:47.202Z,99597.63
2022-12-29T05:31:21.040Z,99603.59
2022-12-29T05:32:08.230Z,99605.06
2022-12-29T05:32:41.997Z,99587.97
2022-12-29T05:33:30.196Z,99591.63
2022-12-29T05:34:04.406Z,99599.69
2022-12-29T05:34:51.199Z,99605.31
2022-12-29T05:35:24.967Z,99586.63
2022-12-29T05:36:22.206Z,99591.66
2022-12-29T05:36:56.000Z,99585.56
2022-12-29T05:37:43.210Z,99594.69
2022-12-29T05:38:16.962Z,99589.78
2022-12-29T05:39:05.205Z,99576.50
2022-12-29T05:39:38.990Z,99591.41
2022-12-29T05:40:20.226Z,99583.84
2022-12-29T05:40:54.296Z,99594.09
2022-12-29T05:41:28.529Z,99589.94
2022-12-29T05:42:08.199Z,99587.50
2022-12-29T05:42:42.279Z,99587.25
2022-12-29T05:43:15.896Z,99575.75
2022-12-29T05:43:56.173Z,99586.50
2022-12-29T05:44:30.252Z,99581.97
2022-12-29T05:45:08.016Z,99569.16
2022-12-29T05:45:48.209Z,99582.47
2022-12-29T05:46:22.282Z,99569.16
2022-12-29T05:46:55.975Z,99570.63
2022-12-29T05:47:36.200Z,99563.09
2022-12-29T05:48:11.253Z,99575.88
2022-12-29T05:48:44.896Z,99568.09
2022-12-29T05:49:26.189Z,99563.56
2022-12-29T05:50:00.244Z,99557.72
2022-12-29T05:50:33.883Z,99566.50
2022-12-29T05:51:14.196Z,99565.50
2022-12-29T05:53:02.796Z,99570.78
2022-12-29T05:53:36.973Z,99564.56
2022-12-29T05:54:18.182Z,99568.19
2022-12-29T05:54:59.267Z,99559.66
2022-12-29T05:55:42.186Z,99566.97
2022-12-29T05:56:32.200Z,99566.03
2022-12-29T05:57:05.965Z,99564.78
2022-12-29T05:57:55.173Z,99569.19
2022-12-29T05:58:28.940Z,99572.00
2022-12-29T05:59:17.209Z,99572.13
2022-12-29T05:59:50.932Z,99563.81
2022-12-29T06:00:38.196Z,99552.34
2022-12-29T06:01:11.985Z,99558.81
2022-12-29T06:01:52.283Z,99562.09
2022-12-29T06:02:26.358Z,99559.28
2022-12-29T06:03:01.077Z,99552.09
2022-12-29T06:03:47.989Z,99562.34
2022-12-29T06:04:22.252Z,99559.91
2022-12-29T06:04:56.022Z,99553.06
2022-12-29T06:05:36.171Z,99556.97
2022-12-29T06:06:10.276Z,99556.03
2022-12-29T06:06:44.124Z,99561.13
2022-12-29T06:07:24.206Z,99550.25
2022-12-29T06:07:58.257Z,99543.81
2022-12-29T06:08:33.007Z,99566.75
2022-12-29T06:09:13.153Z,99554.78
2022-12-29T06:09:49.264Z,99552.34
2022-12-29T06:10:22.913Z,99561.06
2022-12-29T06:11:03.160Z,99562.06
2022-12-29T06:11:37.259Z,99549.84
2022-12-29T06:12:12.013Z,99556.69
2022-12-29T06:12:53.203Z,99555.97
2022-12-29T06:13:28.445Z,99546.13
2022-12-29T06:14:03.429Z,99564.03
2022-12-29T06:14:43.136Z,99563.16
2022-12-29T06:15:18.252Z,99548.06
2022-12-29T06:15:52.511Z,99559.44
2022-12-29T06:16:34.193Z,99559.16
2022-12-29T06:17:08.276Z,99559.63
2022-12-29T06:17:42.166Z,99567.31
2022-12-29T06:18:23.187Z,99563.31
2022-12-29T06:18:57.265Z,99563.28
2022-12-29T06:19:30.950Z,99560.03
2022-12-29T06:20:12.153Z,99573.03
2022-12-29T06:20:46.254Z,99552.84
2022-12-29T06:21:20.913Z,99573.44
2022-12-29T06:22:02.154Z,99562.22
2022-12-29T06:22:36.236Z,99545.25
2022-12-29T06:23:10.015Z,99570.50
2022-12-29T06:23:50.160Z,99547.19
2022-12-29T06:24:24.259Z,99573.03
2022-12-29T06:25:04.383Z,99566.47
2022-12-29T06:25:46.157Z,99566.84
2022-12-29T06:26:20.274Z,99572.13
2022-12-29T06:26:53.908Z,99566.94
2022-12-29T06:27:35.152Z,99564.50
2022-12-29T06:28:11.697Z,99575.25
2022-12-29T06:28:47.316Z,99535.97
2022-12-29T06:29:28.226Z,99572.56
2022-12-29T06:30:02.259Z,99578.69
2022-12-29T06:30:35.943Z,99570.13
2022-12-29T06:31:18.236Z,99564.78
2022-12-29T06:31:57.108Z,99567.09
2022-12-29T06:32:30.939Z,99560.38
2022-12-29T06:33:12.156Z,99568.75
2022-12-29T06:33:49.848Z,99566.66
2022-12-29T06:34:25.899Z,99566.44
2022-12-29T06:35:07.166Z,99571.31
2022-12-29T06:35:41.292Z,99568.00
2022-12-29T06:36:14.926Z,99551.03
2022-12-29T06:36:55.114Z,99568.91
2022-12-29T06:37:29.239Z,99550.47
2022-12-29T06:38:02.985Z,99556.94
2022-12-29T06:38:44.176Z,99554.38
2022-12-29T06:39:25.252Z,99548.25
2022-12-29T06:40:06.147Z,99566.94
2022-12-29T06:40:47.130Z,99562.91
2022-12-29T06:41:22.120Z,99561.78
2022-12-29T06:41:58.906Z,99555.56
2022-12-29T06:42:40.122Z,99567.53
2022-12-29T06:43:14.225Z,99559.56
2022-12-29T06:43:47.974Z,99549.84
2022-12-29T06:44:29.125Z,99565.22
2022-12-29T06:45:17.145Z,99561.78
2022-12-29T06:45:51.976Z,99561.28
2022-12-29T06:46:39.136Z,99556.84
2022-12-29T06:47:12.984Z,99552.97
2022-12-29T06:48:01.139Z,99547.13
2022-12-29T06:48:34.941Z,99547.59
2022-12-29T06:49:22.119Z,99545.69
2022-12-29T06:49:56.152Z,99561.88
2022-12-29T06:50:36.200Z,99561.78
2022-12-29T06:51:10.235Z,99557.63
2022-12-29T06:51:44.065Z,99538.13
2022-12-29T06:52:25.115Z,99566.56
2022-12-29T06:52:59.217Z,99570.81
2022-12-29T06:53:32.867Z,99558.34
2022-12-29T06:54:14.157Z,99562.75
2022-12-29T06:54:48.213Z,99563.94
2022-12-29T06:55:22.208Z,99562.75
2022-12-29T06:56:04.130Z,99552.22
2022-12-29T06:56:38.270Z,99541.53
2022-12-29T06:57:11.923Z,99531.28
2022-12-29T06:57:52.122Z,99556.28
2022-12-29T06:58:26.224Z,99540.56
2022-12-29T06:59:02.042Z,99545.69
2022-12-29T06:59:42.100Z,99564.19
2022-12-29T07:00:22.570Z,99546.91
2022-12-29T07:00:58.932Z,99560.69
2022-12-29T07:01:40.277Z,99554.72
2022-12-29T07:02:19.324Z,99559.84
2022-12-29T07:02:57.780Z,99570.31
2022-12-29T07:03:38.185Z,99573.97
2022-12-29T07:04:12.231Z,99573.75
2022-12-29T07:04:46.083Z,99568.72
2022-12-29T07:05:27.104Z,99564.72
2022-12-29T07:06:01.238Z,99565.59
2022-12-29T07:06:34.950Z,99579.13
2022-12-29T07:07:16.119Z,99582.28
2022-12-29T07:07:51.276Z,99561.19
2022-12-29T07:08:25.482Z,99577.63
2022-12-29T07:09:06.101Z,99581.28
2022-12-29T07:09:40.741Z,99584.66
2022-12-29T07:10:14.926Z,99577.72
2022-12-29T07:10:55.134Z,99570.38
2022-12-29T07:11:29.196Z,99569.53
2022-12-29T07:12:02.991Z,99571.53
2022-12-29T07:12:44.133Z,99560.53
2022-12-29T07:13:18.202Z,99557.31
2022-12-29T07:13:53.044Z,99569.25
2022-12-29T07:14:39.059Z,99561.00
2022-12-29T07:15:17.193Z,99576.81
2022-12-29T07:15:51.659Z,99578.53
2022-12-29T07:16:33.146Z,99544.69
2022-12-29T07:17:07.332Z,99560.00
2022-12-29T07:17:40.934Z,99578.16
2022-12-29T07:18:22.123Z,99558.41
2022-12-29T07:18:56.195Z,99575.72
2022-12-29T07:19:29.912Z,99577.41
2022-12-29T07:20:11.085Z,99573.63
2022-12-29T07:20:45.900Z,99566.56
2022-12-29T07:21:20.429Z,99571.84
2022-12-29T07:22:03.101Z,99581.59
2022-12-29T07:22:37.265Z,99575.38
2022-12-29T07:23:10.872Z,99572.56
2022-12-29T07:23:52.115Z,99573.16
2022-12-29T07:24:29.091Z,99569.16
2022-12-29T07:25:04.257Z,99581.41
2022-12-29T07:25:44.099Z,99567.50
2022-12-29T07:26:21.201Z,99571.19
2022-12-29T07:26:55.850Z,99577.28
2022-12-29T07:27:37.091Z,99576.38
2022-12-29T07:28:12.187Z,99572.38
2022-12-29T07:28:46.026Z,99584.25
2022-12-29T07:29:26.107Z,99578.03
2022-12-29T07:30:00.238Z,99577.75
2022-12-29T07:30:34.355Z,99583.13
2022-12-29T07:31:26.123Z,99568.88
2022-12-29T07:32:00.312Z,99571.19
2022-12-29T07:32:36.287Z,99580.91
2022-12-29T07:33:16.083Z,99564.31
2022-12-29T07:33:50.179Z,99580.66
2022-12-29T07:34:23.839Z,99556.53
2022-12-29T07:35:04.124Z,99563.31
2022-12-29T07:35:38.183Z,99577.50
2022-12-29T07:36:13.223Z,99559.91
2022-12-29T07:36:54.104Z,99559.91
2022-12-29T07:37:28.184Z,99553.22
2022-12-29T07:38:01.882Z,99555.31
2022-12-29T07:38:43.125Z,99554.28
2022-12-29T07:39:17.154Z,99551.47
2022-12-29T07:39:51.858Z,99550.63
2022-12-29T07:40:33.132Z,99555.16
2022-12-29T07:41:07.165Z,99557.00
2022-12-29T07:41:40.834Z,99564.63
2022-12-29T07:42:21.087Z,99541.94
2022-12-29T07:42:55.175Z,99558.53
2022-12-29T07:43:29.121Z,99552.56
2022-12-29T07:44:10.260Z,99549.88
2022-12-29T07:44:44.156Z,99564.16
2022-12-29T07:45:31.071Z,99550.72
2022-12-29T07:46:19.016Z,99561.94
2022-12-29T07:47:26.034Z,99571.59
2022-12-29T07:48:21.033Z,99559.41
2022-12-29T07:49:15.079Z,99566.47
2022-12-29T07:50:09.079Z,99557.63
2022-12-29T07:50:56.109Z,99556.47
2022-12-29T07:51:30.169Z,99569.38
2022-12-29T07:52:17.075Z,99566.63
2022-12-29T07:52:51.154Z,99571.69
2022-12-29T07:53:38.058Z,99567.69
2022-12-29T07:54:13.558Z,99567.72
2022-12-29T07:55:01.049Z,99557.25
2022-12-29T07:55:35.170Z,99566.31
2022-12-29T07:56:15.091Z,99573.63
2022-12-29T07:56:55.187Z,99563.63
2022-12-29T07:57:35.088Z,99562.03
2022-12-29T07:58:16.176Z,99551.28
2022-12-29T07:58:56.057Z,99565.56
2022-12-29T07:59:36.162Z,99566.31
2022-12-29T08:00:18.042Z,99559.63
2022-12-29T08:01:06.447Z,99572.00
2022-12-29T08:01:47.214Z,99559.78
2022-12-29T08:02:27.505Z,99574.44
2022-12-29T08:03:09.050Z,99564.78
2022-12-29T08:03:53.990Z,99574.00
2022-12-29T08:04:37.048Z,99563.72
2022-12-29T08:05:31.069Z,99569.09
2022-12-29T08:06:27.043Z,99567.22
2022-12-29T08:07:07.062Z,99575.28
2022-12-29T08:07:47.083Z,99571.94
2022-12-29T08:08:28.056Z,99564.00
2022-12-29T08:09:14.970Z,99578.09
2022-12-29T08:09:58.041Z,99571.72
2022-12-29T08:10:38.218Z,99574.88
2022-12-29T08:11:18.040Z,99578.81
2022-12-29T08:11:59.299Z,99582.94
2022-12-29T08:12:40.095Z,99579.09
2022-12-29T08:13:20.116Z,99589.09
2022-12-29T08:14:00.032Z,99569.84
2022-12-29T08:14:40.123Z,99579.41
2022-12-29T08:15:20.055Z,99573.44
2022-12-29T08:16:00.245Z,99567.19
2022-12-29T08:16:41.065Z,99567.34
2022-12-29T08:17:21.111Z,99576.91
2022-12-29T08:18:02.057Z,99568.13
2022-12-29T08:18:42.115Z,99565.81
2022-12-29T08:19:23.023Z,99569.50
2022-12-29T08:20:04.104Z,99564.41
2022-12-29T08:20:44.055Z,99558.44
2022-12-29T08:21:24.233Z,99569.31
2022-12-29T08:22:05.065Z,99554.16
2022-12-29T08:22:45.129Z,99535.28
2022-12-29T08:23:25.051Z,99568.25
2022-12-29T08:24:05.115Z,99566.56
2022-12-29T08:24:45.047Z,99565.13
2022-12-29T08:25:25.095Z,99571.53
2022-12-29T08:26:11.026Z,99571.41
2022-12-29T08:26:52.103Z,99567.88
2022-12-29T08:27:34.042Z,99576.13
2022-12-29T08:28:14.130Z,99568.31
2022-12-29T08:28:54.077Z,99585.84
2022-12-29T08:29:34.112Z,99578.03
2022-12-29T08:30:17.018Z,99577.25
2022-12-29T08:30:57.337Z,99565.81
2022-12-29T08:31:37.105Z,99572.13
2022-12-29T08:32:18.142Z,99576.25
2022-12-29T08:32:59.130Z,99579.47
2022-12-29T08:33:39.105Z,99575.81
2022-12-29T08:34:19.052Z,99570.28
2022-12-29T08:34:59.308Z,99557.69
2022-12-29T08:35:40.035Z,99566.22
2022-12-29T08:36:20.156Z,99565.69
2022-12-29T08:37:01.073Z,99559.38
2022-12-29T08:37:42.180Z,99552.16
2022-12-29T08:38:23.016Z,99557.81
2022-12-29T08:39:03.255Z,99561.47
2022-12-29T08:39:43.054Z,99562.19
2022-12-29T08:40:24.083Z,99540.47
2022-12-29T08:41:05.053Z,99562.91
2022-12-29T08:41:45.089Z,99553.84
2022-12-29T08:42:25.047Z,99558.56
2022-12-29T08:43:05.123Z,99556.00
2022-12-29T08:43:45.018Z,99558.97
2022-12-29T08:44:25.074Z,99544.16
2022-12-29T08:45:08.021Z,99569.97
2022-12-29T08:45:48.091Z,99560.06
2022-12-29T08:46:29.117Z,99541.31
2022-12-29T08:47:09.167Z,99563.50
2022-12-29T08:47:50.044Z,99565.06
2022-12-29T08:48:30.205Z,99558.97
2022-12-29T08:49:11.049Z,99548.22
2022-12-29T08:49:52.270Z,99552.13
2022-12-29T08:50:33.015Z,99543.81
2022-12-29T08:51:13.113Z,99552.34
2022-12-29T08:51:54.032Z,99553.72
2022-12-29T08:52:34.134Z,99552.28
2022-12-29T08:53:15.011Z,99560.81
2022-12-29T08:53:55.155Z,99560.84
2022-12-29T08:54:36.055Z,99559.97
2022-12-29T08:55:17.283Z,99551.59